createdAt,value
2023-01-21T00:00:49.401Z,-2.939453125
2023-01-21T00:01:50.759Z,-2.929382324
2023-01-21T00:02:51.248Z,-2.86895752
2023-01-21T00:03:51.700Z,-2.838745117
2023-01-21T00:04:52.241Z,-2.828674316
2023-01-21T00:05:52.687Z,-2.858886719
2023-01-21T00:06:53.082Z,-2.86895752
2023-01-21T00:07:53.472Z,-2.858886719
2023-01-21T00:08:53.852Z,-2.86895752
2023-01-21T00:09:54.322Z,-2.838745117
2023-01-21T00:10:54.758Z,-2.818603516
2023-01-21T00:11:55.925Z,-2.798461914
2023-01-21T00:12:56.337Z,-2.828674316
2023-01-21T00:13:56.723Z,-2.86895752
2023-01-21T00:14:57.266Z,-2.899169922
2023-01-21T00:15:57.787Z,-2.929382324
2023-01-21T00:16:58.279Z,-2.969665527
2023-01-21T00:17:58.755Z,-3.040161133
2023-01-21T00:18:59.136Z,-3.100585938
2023-01-21T00:19:59.673Z,-3.13079834
2023-01-21T00:21:00.148Z,-3.150939941
2023-01-21T00:22:01.469Z,-3.13079834
2023-01-21T00:23:02.392Z,-3.13079834
2023-01-21T00:24:34.039Z,-3.120727539
2023-01-21T00:25:34.432Z,-3.150939941
2023-01-21T00:26:34.971Z,-3.191223145
2023-01-21T00:27:36.073Z,-3.221435547
2023-01-21T00:28:36.496Z,-3.26171875
2023-01-21T00:29:37.980Z,-3.342285156
2023-01-21T00:30:38.397Z,-3.402709961
2023-01-21T00:31:39.629Z,-3.412780762
2023-01-21T00:32:39.961Z,-3.432922363
2023-01-21T00:33:40.627Z,-3.432922363
2023-01-21T00:34:41.235Z,-3.402709961
2023-01-21T00:35:41.630Z,-3.402709961
2023-01-21T00:36:42.179Z,-3.432922363
2023-01-21T00:37:42.632Z,-3.442993164
2023-01-21T00:38:43.150Z,-3.463134766
2023-01-21T00:39:43.769Z,-3.463134766
2023-01-21T00:40:44.184Z,-3.493347168
2023-01-21T00:41:45.440Z,-3.52355957
2023-01-21T00:42:45.955Z,-3.573913574
2023-01-21T00:43:46.381Z,-3.583984375
2023-01-21T00:44:46.960Z,-3.594055176
2023-01-21T00:45:47.363Z,-3.64440918
2023-01-21T00:46:47.769Z,-3.684692383
2023-01-21T00:47:48.277Z,-3.65447998
2023-01-21T00:48:48.680Z,-3.694763184
2023-01-21T00:49:49.228Z,-3.704833984
2023-01-21T00:50:49.716Z,-3.704833984
2023-01-21T00:51:50.835Z,-3.724975586
2023-01-21T00:52:51.252Z,-3.724975586
2023-01-21T00:53:51.704Z,-3.704833984
2023-01-21T00:54:52.110Z,-3.755187988
2023-01-21T00:55:52.720Z,-3.765258789
2023-01-21T00:56:53.117Z,-3.805541992
2023-01-21T00:57:53.599Z,-3.805541992
2023-01-21T00:58:54.198Z,-3.825683594
2023-01-21T00:59:55.357Z,-3.825683594
2023-01-21T01:00:56.001Z,-3.825683594
2023-01-21T01:01:57.286Z,-3.835754395
2023-01-21T01:02:57.899Z,-3.835754395
2023-01-21T01:03:58.328Z,-3.876037598
2023-01-21T01:04:58.981Z,-3.90625
2023-01-21T01:05:59.476Z,-3.90625
2023-01-21T01:06:59.963Z,-3.90625
2023-01-21T01:08:00.522Z,-3.916320801
2023-01-21T01:09:00.883Z,-3.916320801
2023-01-21T01:10:01.962Z,-3.936462402
2023-01-21T01:11:33.611Z,-3.936462402
2023-01-21T01:12:34.069Z,-3.936462402
2023-01-21T01:13:34.489Z,-3.936462402
2023-01-21T01:14:34.874Z,-3.936462402
2023-01-21T01:15:35.494Z,-3.966674805
2023-01-21T01:16:35.898Z,-3.966674805
2023-01-21T01:17:36.425Z,-3.986816406
2023-01-21T01:18:36.889Z,-4.03717041
2023-01-21T01:19:37.280Z,-4.057312012
2023-01-21T01:20:37.860Z,-4.03717041
2023-01-21T01:21:39.079Z,-4.017028809
2023-01-21T01:22:39.535Z,-4.017028809
2023-01-21T01:23:40.097Z,-4.017028809
2023-01-21T01:24:40.713Z,-3.966674805
2023-01-21T01:25:41.272Z,-3.946533203
2023-01-21T01:26:42.371Z,-3.916320801
2023-01-21T01:27:42.217Z,-3.936462402
2023-01-21T01:28:42.805Z,-3.936462402
2023-01-21T01:29:44.055Z,-3.946533203
2023-01-21T01:30:44.640Z,-3.986816406
2023-01-21T01:31:45.736Z,-4.006958008
2023-01-21T01:32:46.051Z,-4.067382813
2023-01-21T01:33:46.499Z,-4.087524414
2023-01-21T01:34:46.889Z,-4.127807617
2023-01-21T01:35:47.436Z,-4.15802002
2023-01-21T01:36:47.885Z,-4.15802002
2023-01-21T01:37:48.457Z,-4.147949219
2023-01-21T01:38:48.894Z,-4.15802002
2023-01-21T01:39:49.275Z,-4.16809082
2023-01-21T01:40:49.911Z,-4.188232422
2023-01-21T01:41:51.075Z,-4.218444824
2023-01-21T01:42:51.687Z,-4.218444824
2023-01-21T01:43:52.109Z,-4.218444824
2023-01-21T01:44:52.512Z,-4.198303223
2023-01-21T01:45:53.013Z,-4.198303223
2023-01-21T01:46:53.387Z,-4.218444824
2023-01-21T01:47:53.853Z,-4.258728027
2023-01-21T01:48:54.273Z,-4.29901123
2023-01-21T01:49:54.669Z,-4.278869629
2023-01-21T01:50:55.152Z,-4.228515625
2023-01-21T01:51:56.076Z,-4.218444824
2023-01-21T01:52:56.617Z,-4.218444824
2023-01-21T01:53:57.074Z,-4.16809082
2023-01-21T01:54:57.501Z,-4.117736816
2023-01-21T01:55:58.093Z,-4.067382813
2023-01-21T01:56:58.478Z,-4.03717041
2023-01-21T01:57:59.147Z,-4.067382813
2023-01-21T01:58:59.520Z,-4.087524414
2023-01-21T01:59:59.940Z,-4.127807617
2023-01-21T02:01:00.385Z,-4.127807617
2023-01-21T02:02:02.123Z,-4.127807617
2023-01-21T02:03:32.788Z,-4.15802002
2023-01-21T02:04:33.339Z,-4.188232422
2023-01-21T02:05:33.862Z,-4.198303223
2023-01-21T02:06:34.265Z,-4.268798828
2023-01-21T02:07:34.851Z,-4.329223633
2023-01-21T02:08:35.282Z,-4.339294434
2023-01-21T02:09:35.786Z,-4.339294434
2023-01-21T02:10:36.293Z,-4.359436035
2023-01-21T02:11:36.707Z,-4.369506836
2023-01-21T02:12:37.939Z,-4.409790039
2023-01-21T02:13:38.348Z,-4.480285645
2023-01-21T02:14:38.855Z,-4.480285645
2023-01-21T02:15:39.340Z,-4.520568848
2023-01-21T02:16:39.766Z,-4.580993652
2023-01-21T02:17:40.505Z,-4.591064453
2023-01-21T02:18:40.949Z,-4.591064453
2023-01-21T02:19:41.295Z,-4.621276855
2023-01-21T02:20:41.948Z,-4.591064453
2023-01-21T02:21:42.351Z,-4.591064453
2023-01-21T02:22:43.961Z,-4.621276855
2023-01-21T02:23:44.371Z,-4.631347656
2023-01-21T02:24:44.761Z,-4.631347656
2023-01-21T02:25:45.219Z,-4.631347656
2023-01-21T02:26:45.689Z,-4.560852051
2023-01-21T02:27:46.087Z,-4.540710449
2023-01-21T02:28:46.516Z,-4.520568848
2023-01-21T02:29:47.558Z,-4.510498047
2023-01-21T02:30:48.196Z,-4.540710449
2023-01-21T02:31:48.743Z,-4.540710449
2023-01-21T02:32:49.780Z,-4.540710449
2023-01-21T02:33:50.264Z,-4.540710449
2023-01-21T02:34:50.654Z,-4.560852051
2023-01-21T02:35:51.166Z,-4.55078125
2023-01-21T02:36:51.673Z,-4.55078125
2023-01-21T02:37:52.306Z,-4.540710449
2023-01-21T02:38:52.786Z,-4.560852051
2023-01-21T02:39:53.181Z,-4.621276855
2023-01-21T02:40:53.815Z,-4.621276855
2023-01-21T02:41:55.087Z,-4.621276855
2023-01-21T02:42:55.656Z,-4.621276855
2023-01-21T02:43:56.042Z,-4.651489258
2023-01-21T02:44:56.553Z,-4.661560059
2023-01-21T02:45:57.024Z,-4.621276855
2023-01-21T02:46:57.492Z,-4.651489258
2023-01-21T02:47:57.970Z,-4.631347656
2023-01-21T02:48:58.439Z,-4.671630859
2023-01-21T02:49:58.979Z,-4.661560059
2023-01-21T02:50:59.430Z,-4.671630859
2023-01-21T02:52:00.584Z,-4.651489258
2023-01-21T02:53:31.309Z,-4.661560059
2023-01-21T02:54:32.546Z,-4.721984863
2023-01-21T02:55:33.105Z,-4.701843262
2023-01-21T02:56:33.514Z,-4.671630859
2023-01-21T02:57:33.979Z,-4.671630859
2023-01-21T02:58:34.361Z,-4.671630859
2023-01-21T02:59:34.753Z,-4.661560059
2023-01-21T03:00:35.247Z,-4.661560059
2023-01-21T03:01:35.719Z,-4.631347656
2023-01-21T03:02:36.799Z,-4.651489258
2023-01-21T03:03:37.454Z,-4.631347656
2023-01-21T03:04:37.682Z,-4.591064453
2023-01-21T03:05:38.256Z,-4.591064453
2023-01-21T03:06:38.735Z,-4.631347656
2023-01-21T03:07:39.179Z,-4.591064453
2023-01-21T03:08:39.799Z,-4.621276855
2023-01-21T03:09:40.205Z,-4.631347656
2023-01-21T03:10:40.936Z,-4.651489258
2023-01-21T03:11:41.381Z,-4.661560059
2023-01-21T03:12:42.776Z,-4.701843262
2023-01-21T03:13:43.280Z,-4.732055664
2023-01-21T03:14:43.653Z,-4.701843262
2023-01-21T03:15:44.074Z,-4.701843262
2023-01-21T03:16:44.496Z,-4.691772461
2023-01-21T03:17:44.922Z,-4.661560059
2023-01-21T03:18:45.492Z,-4.651489258
2023-01-21T03:19:45.932Z,-4.591064453
2023-01-21T03:20:46.448Z,-4.55078125
2023-01-21T03:21:46.888Z,-4.540710449
2023-01-21T03:22:48.284Z,-4.480285645
2023-01-21T03:23:48.782Z,-4.510498047
2023-01-21T03:24:49.191Z,-4.450073242
2023-01-21T03:25:49.667Z,-4.409790039
2023-01-21T03:26:50.138Z,-4.379577637
2023-01-21T03:27:50.632Z,-4.409790039
2023-01-21T03:28:51.182Z,-4.460144043
2023-01-21T03:29:51.597Z,-4.490356445
2023-01-21T03:30:52.848Z,-4.490356445
2023-01-21T03:31:53.341Z,-4.480285645
2023-01-21T03:32:54.248Z,-4.510498047
2023-01-21T03:33:54.898Z,-4.55078125
2023-01-21T03:34:55.300Z,-4.580993652
2023-01-21T03:35:55.704Z,-4.631347656
2023-01-21T03:36:56.232Z,-4.631347656
2023-01-21T03:37:56.606Z,-4.661560059
2023-01-21T03:38:57.076Z,-4.691772461
2023-01-21T03:39:57.481Z,-4.732055664
2023-01-21T03:40:57.871Z,-4.701843262
2023-01-21T03:41:58.458Z,-4.671630859
2023-01-21T03:43:30.369Z,-4.671630859
2023-01-21T03:44:30.987Z,-4.621276855
2023-01-21T03:45:31.440Z,-4.580993652
2023-01-21T03:46:31.938Z,-4.55078125
2023-01-21T03:47:32.350Z,-4.540710449
2023-01-21T03:48:32.745Z,-4.540710449
2023-01-21T03:49:33.199Z,-4.540710449
2023-01-21T03:50:33.646Z,-4.510498047
2023-01-21T03:51:34.229Z,-4.520568848
2023-01-21T03:52:35.553Z,-4.490356445
2023-01-21T03:53:35.983Z,-4.490356445
2023-01-21T03:54:36.557Z,-4.460144043
2023-01-21T03:55:36.999Z,-4.490356445
2023-01-21T03:56:37.571Z,-4.490356445
2023-01-21T03:57:38.038Z,-4.520568848
2023-01-21T03:58:38.474Z,-4.55078125
2023-01-21T03:59:39.090Z,-4.55078125
2023-01-21T04:00:40.147Z,-4.631347656
2023-01-21T04:01:40.375Z,-4.631347656
2023-01-21T04:02:41.542Z,-4.631347656
2023-01-21T04:03:41.945Z,-4.621276855
2023-01-21T04:04:42.457Z,-4.631347656
2023-01-21T04:05:42.902Z,-4.591064453
2023-01-21T04:06:43.311Z,-4.560852051
2023-01-21T04:07:43.875Z,-4.540710449
2023-01-21T04:08:44.367Z,-4.490356445
2023-01-21T04:09:44.902Z,-4.510498047
2023-01-21T04:10:45.517Z,-4.510498047
2023-01-21T04:11:45.922Z,-4.510498047
2023-01-21T04:12:46.530Z,-4.510498047
2023-01-21T04:13:47.771Z,-4.460144043
2023-01-21T04:14:48.320Z,-4.399719238
2023-01-21T04:15:48.783Z,-4.339294434
2023-01-21T04:16:49.174Z,-4.329223633
2023-01-21T04:17:49.921Z,-4.359436035
2023-01-21T04:18:50.356Z,-4.409790039
2023-01-21T04:19:50.908Z,-4.460144043
2023-01-21T04:20:51.313Z,-4.480285645
2023-01-21T04:21:51.713Z,-4.490356445
2023-01-21T04:22:53.038Z,-4.55078125
2023-01-21T04:23:53.524Z,-4.55078125
2023-01-21T04:24:54.120Z,-4.55078125
2023-01-21T04:25:54.544Z,-4.560852051
2023-01-21T04:26:54.944Z,-4.540710449
2023-01-21T04:27:55.395Z,-4.520568848
2023-01-21T04:28:55.882Z,-4.510498047
2023-01-21T04:29:57.074Z,-4.560852051
2023-01-21T04:30:57.533Z,-4.580993652
2023-01-21T04:31:58.008Z,-4.560852051
2023-01-21T04:32:59.043Z,-4.580993652
2023-01-21T04:34:29.856Z,-4.631347656
2023-01-21T04:35:30.289Z,-4.651489258
2023-01-21T04:36:31.255Z,-4.742126465
2023-01-21T04:37:31.876Z,-4.772338867
2023-01-21T04:38:32.284Z,-4.832763672
2023-01-21T04:39:32.783Z,-4.852905273
2023-01-21T04:40:33.236Z,-4.832763672
2023-01-21T04:41:33.680Z,-4.792480469
2023-01-21T04:42:34.270Z,-4.762268066
2023-01-21T04:43:35.278Z,-4.742126465
2023-01-21T04:44:35.708Z,-4.732055664
2023-01-21T04:45:36.305Z,-4.721984863
2023-01-21T04:46:36.637Z,-4.721984863
2023-01-21T04:47:37.206Z,-4.742126465
2023-01-21T04:48:37.685Z,-4.762268066
2023-01-21T04:49:38.106Z,-4.772338867
2023-01-21T04:50:38.607Z,-4.792480469
2023-01-21T04:51:40.039Z,-4.842834473
2023-01-21T04:52:40.700Z,-4.903259277
2023-01-21T04:53:41.899Z,-4.973754883
2023-01-21T04:54:42.329Z,-5.054321289
2023-01-21T04:55:42.726Z,-5.124816895
2023-01-21T04:56:43.277Z,-5.134887695
2023-01-21T04:57:43.666Z,-5.155029297
2023-01-21T04:58:44.226Z,-5.155029297
2023-01-21T04:59:44.739Z,-5.155029297
2023-01-21T05:00:45.096Z,-5.165100098
2023-01-21T05:01:45.665Z,-5.165100098
2023-01-21T05:02:47.042Z,-5.165100098
2023-01-21T05:03:47.595Z,-5.1953125
2023-01-21T05:04:48.058Z,-5.225524902
2023-01-21T05:05:48.451Z,-5.245666504
2023-01-21T05:06:49.065Z,-5.245666504
2023-01-21T05:07:49.487Z,-5.205383301
2023-01-21T05:08:50.004Z,-5.205383301
2023-01-21T05:09:50.436Z,-5.225524902
2023-01-21T05:10:50.785Z,-5.165100098
2023-01-21T05:11:51.264Z,-5.134887695
2023-01-21T05:12:52.558Z,-5.124816895
2023-01-21T05:13:53.042Z,-5.134887695
2023-01-21T05:14:53.519Z,-5.114746094
2023-01-21T05:15:53.953Z,-5.06439209
2023-01-21T05:16:54.511Z,-5.084533691
2023-01-21T05:17:54.910Z,-5.084533691
2023-01-21T05:18:55.325Z,-5.024108887
2023-01-21T05:19:55.918Z,-4.973754883
2023-01-21T05:20:56.324Z,-4.973754883
2023-01-21T05:21:56.845Z,-4.94354248
2023-01-21T05:22:58.051Z,-4.953613281
2023-01-21T05:23:58.864Z,-4.953613281
2023-01-21T05:25:29.696Z,-4.93347168
2023-01-21T05:26:30.089Z,-4.903259277
2023-01-21T05:27:30.612Z,-4.903259277
2023-01-21T05:28:31.148Z,-4.93347168
2023-01-21T05:29:31.699Z,-4.913330078
2023-01-21T05:30:32.062Z,-4.913330078
2023-01-21T05:31:32.556Z,-4.953613281
2023-01-21T05:32:32.831Z,-4.953613281
2023-01-21T05:33:34.283Z,-4.93347168
2023-01-21T05:34:34.713Z,-4.93347168
2023-01-21T05:35:35.163Z,-4.973754883
2023-01-21T05:36:35.589Z,-5.024108887
2023-01-21T05:37:35.993Z,-5.084533691
2023-01-21T05:38:36.466Z,-5.114746094
2023-01-21T05:39:36.948Z,-5.124816895
2023-01-21T05:40:37.602Z,-5.155029297
2023-01-21T05:41:37.981Z,-5.124816895
2023-01-21T05:42:38.504Z,-5.114746094
2023-01-21T05:43:39.729Z,-5.084533691
2023-01-21T05:44:40.237Z,-5.06439209
2023-01-21T05:45:41.001Z,-5.054321289
2023-01-21T05:46:41.406Z,-5.06439209
2023-01-21T05:47:41.945Z,-5.034179688
2023-01-21T05:48:42.349Z,-5.024108887
2023-01-21T05:49:42.767Z,-4.993896484
2023-01-21T05:50:43.297Z,-4.993896484
2023-01-21T05:51:43.659Z,-4.94354248
2023-01-21T05:52:44.171Z,-4.913330078
2023-01-21T05:53:45.223Z,-4.832763672
2023-01-21T05:55:00.650Z,-4.762268066
2023-01-21T05:55:46.141Z,-4.742126465
2023-01-21T05:56:46.535Z,-4.721984863
2023-01-21T05:57:47.021Z,-4.661560059
2023-01-21T05:58:47.394Z,-4.621276855
2023-01-21T05:59:47.806Z,-4.661560059
2023-01-21T06:00:48.266Z,-4.691772461
2023-01-21T06:01:49.288Z,-4.732055664
2023-01-21T06:02:49.904Z,-4.772338867
2023-01-21T06:03:51.279Z,-4.852905273
2023-01-21T06:04:51.797Z,-4.842834473
2023-01-21T06:05:52.207Z,-4.81262207
2023-01-21T06:06:52.699Z,-4.842834473
2023-01-21T06:07:53.166Z,-4.873046875
2023-01-21T06:08:53.560Z,-4.93347168
2023-01-21T06:09:54.148Z,-5.034179688
2023-01-21T06:10:54.556Z,-5.094604492
2023-01-21T06:11:54.916Z,-5.155029297
2023-01-21T06:12:55.315Z,-5.205383301
2023-01-21T06:13:55.734Z,-5.225524902
2023-01-21T06:14:56.847Z,-5.235595703
2023-01-21T06:15:57.455Z,-5.265808105
2023-01-21T06:16:57.726Z,-5.296020508
2023-01-21T06:18:28.730Z,-5.275878906
2023-01-21T06:19:29.139Z,-5.265808105
2023-01-21T06:20:29.663Z,-5.225524902
2023-01-21T06:21:30.135Z,-5.205383301
2023-01-21T06:22:30.495Z,-5.1953125
2023-01-21T06:23:32.013Z,-5.134887695
2023-01-21T06:24:32.391Z,-5.094604492
2023-01-21T06:25:32.939Z,-5.034179688
2023-01-21T06:26:33.398Z,-5.024108887
2023-01-21T06:27:33.727Z,-4.973754883
2023-01-21T06:28:35.024Z,-4.903259277
2023-01-21T06:29:35.396Z,-4.883117676
2023-01-21T06:30:35.964Z,-4.852905273
2023-01-21T06:31:37.156Z,-4.852905273
2023-01-21T06:32:37.585Z,-4.883117676
2023-01-21T06:33:38.527Z,-4.832763672
2023-01-21T06:34:38.931Z,-4.81262207
2023-01-21T06:35:39.335Z,-4.81262207
2023-01-21T06:36:39.740Z,-4.792480469
2023-01-21T06:37:40.162Z,-4.742126465
2023-01-21T06:38:40.687Z,-4.671630859
2023-01-21T06:39:41.069Z,-4.701843262
2023-01-21T06:40:41.634Z,-4.742126465
2023-01-21T06:41:42.708Z,-4.721984863
2023-01-21T06:42:43.227Z,-4.792480469
2023-01-21T06:43:44.521Z,-4.832763672
2023-01-21T06:44:44.981Z,-4.873046875
2023-01-21T06:45:45.447Z,-4.913330078
2023-01-21T06:46:55.861Z,-4.873046875
2023-01-21T06:47:46.375Z,-4.842834473
2023-01-21T06:48:46.795Z,-4.832763672
2023-01-21T06:49:47.180Z,-4.792480469
2023-01-21T06:50:47.794Z,-4.792480469
2023-01-21T06:51:48.186Z,-4.772338867
2023-01-21T06:52:48.729Z,-4.772338867
2023-01-21T06:53:49.707Z,-4.772338867
2023-01-21T06:54:51.100Z,-4.772338867
2023-01-21T06:55:51.544Z,-4.772338867
2023-01-21T06:56:51.966Z,-4.792480469
2023-01-21T06:57:52.543Z,-4.832763672
2023-01-21T06:58:52.925Z,-4.842834473
2023-01-21T06:59:53.449Z,-4.842834473
2023-01-21T07:00:53.974Z,-4.852905273
2023-01-21T07:01:55.615Z,-4.883117676
2023-01-21T07:02:55.955Z,-4.903259277
2023-01-21T07:03:57.130Z,-4.94354248
2023-01-21T07:05:28.014Z,-4.883117676
2023-01-21T07:06:28.548Z,-4.913330078
2023-01-21T07:07:29.109Z,-4.93347168
2023-01-21T07:08:29.462Z,-4.94354248
2023-01-21T07:09:29.964Z,-4.94354248
2023-01-21T07:10:30.359Z,-4.93347168
2023-01-21T07:11:30.755Z,-4.913330078
2023-01-21T07:12:31.323Z,-4.883117676
2023-01-21T07:13:32.515Z,-4.842834473
2023-01-21T07:14:33.004Z,-4.873046875
2023-01-21T07:15:33.380Z,-4.873046875
2023-01-21T07:16:33.771Z,-4.873046875
2023-01-21T07:17:34.281Z,-4.842834473
2023-01-21T07:18:35.514Z,-4.852905273
2023-01-21T07:19:36.004Z,-4.832763672
2023-01-21T07:20:36.374Z,-4.81262207
2023-01-21T07:21:36.780Z,-4.81262207
2023-01-21T07:22:37.243Z,-4.832763672
2023-01-21T07:23:38.505Z,-4.852905273
2023-01-21T07:24:38.974Z,-4.832763672
2023-01-21T07:25:39.358Z,-4.832763672
2023-01-21T07:26:39.773Z,-4.762268066
2023-01-21T07:27:40.196Z,-4.762268066
2023-01-21T07:28:40.713Z,-4.742126465
2023-01-21T07:29:41.168Z,-4.742126465
2023-01-21T07:30:42.591Z,-4.732055664
2023-01-21T07:31:42.967Z,-4.742126465
2023-01-21T07:32:43.377Z,-4.732055664
2023-01-21T07:33:43.741Z,-4.691772461
2023-01-21T07:34:44.175Z,-4.671630859
2023-01-21T07:35:44.538Z,-4.691772461
2023-01-21T07:36:44.936Z,-4.721984863
2023-01-21T07:37:45.395Z,-4.701843262
2023-01-21T07:38:45.792Z,-4.671630859
2023-01-21T07:39:46.310Z,-4.671630859
2023-01-21T07:40:46.697Z,-4.671630859
2023-01-21T07:41:47.190Z,-4.661560059
2023-01-21T07:42:47.681Z,-4.671630859
2023-01-21T07:43:49.012Z,-4.671630859
2023-01-21T07:44:49.622Z,-4.691772461
2023-01-21T07:45:50.000Z,-4.742126465
2023-01-21T07:46:50.611Z,-4.81262207
2023-01-21T07:47:51.021Z,-4.842834473
2023-01-21T07:48:51.380Z,-4.852905273
2023-01-21T07:49:51.975Z,-4.852905273
2023-01-21T07:50:52.376Z,-4.81262207
2023-01-21T07:51:52.882Z,-4.81262207
2023-01-21T07:52:53.298Z,-4.762268066
2023-01-21T07:53:54.386Z,-4.732055664
2023-01-21T07:54:54.810Z,-4.701843262
2023-01-21T07:55:56.241Z,-4.721984863
2023-01-21T07:56:57.164Z,-4.591064453
2023-01-21T07:58:27.765Z,-4.580993652
2023-01-21T07:59:28.202Z,-4.55078125
2023-01-21T08:00:28.629Z,-4.55078125
2023-01-21T08:01:30.103Z,-4.55078125
2023-01-21T08:02:30.559Z,-4.631347656
2023-01-21T08:03:30.870Z,-4.691772461
2023-01-21T08:04:32.230Z,-4.701843262
2023-01-21T08:05:32.644Z,-4.732055664
2023-01-21T08:06:33.167Z,-4.732055664
2023-01-21T08:07:33.619Z,-4.742126465
2023-01-21T08:08:34.073Z,-4.732055664
2023-01-21T08:09:34.668Z,-4.671630859
2023-01-21T08:10:35.059Z,-4.661560059
2023-01-21T08:11:35.464Z,-4.621276855
2023-01-21T08:12:36.060Z,-4.591064453
2023-01-21T08:13:36.481Z,-4.55078125
2023-01-21T08:14:37.705Z,-4.55078125
2023-01-21T08:15:38.179Z,-4.540710449
2023-01-21T08:16:38.641Z,-4.490356445
2023-01-21T08:17:39.029Z,-4.409790039
2023-01-21T08:18:39.469Z,-4.379577637
2023-01-21T08:19:39.836Z,-4.359436035
2023-01-21T08:20:40.212Z,-4.369506836
2023-01-21T08:21:40.755Z,-4.379577637
2023-01-21T08:22:41.226Z,-4.369506836
2023-01-21T08:23:42.495Z,-4.339294434
2023-01-21T08:24:42.887Z,-4.329223633
2023-01-21T08:25:44.245Z,-4.309082031
2023-01-21T08:26:44.655Z,-4.309082031
2023-01-21T08:27:45.142Z,-4.339294434
2023-01-21T08:28:45.529Z,-4.359436035
2023-01-21T08:29:46.012Z,-4.309082031
2023-01-21T08:30:46.474Z,-4.29901123
2023-01-21T08:31:47.577Z,-4.29901123
2023-01-21T08:32:48.092Z,-4.29901123
2023-01-21T08:33:48.474Z,-4.309082031
2023-01-21T08:34:48.878Z,-4.309082031
2023-01-21T08:35:49.293Z,-4.268798828
2023-01-21T08:36:49.704Z,-4.258728027
2023-01-21T08:37:50.116Z,-4.278869629
2023-01-21T08:38:50.511Z,-4.278869629
2023-01-21T08:39:50.906Z,-4.218444824
2023-01-21T08:40:51.335Z,-4.218444824
2023-01-21T08:41:51.772Z,-4.16809082
2023-01-21T08:42:52.325Z,-4.097595215
2023-01-21T08:43:52.728Z,-4.087524414
2023-01-21T08:44:53.703Z,-4.087524414
2023-01-21T08:45:54.185Z,-4.067382813
2023-01-21T08:46:54.604Z,-4.067382813
2023-01-21T08:47:55.176Z,-4.03717041
2023-01-21T08:48:55.629Z,-3.986816406
2023-01-21T08:49:56.041Z,-3.90625
2023-01-21T08:51:27.100Z,-3.855895996
2023-01-21T08:52:27.494Z,-3.835754395
2023-01-21T08:53:27.869Z,-3.835754395
2023-01-21T08:54:29.187Z,-3.876037598
2023-01-21T08:55:30.493Z,-3.835754395
2023-01-21T08:56:31.078Z,-3.855895996
2023-01-21T08:57:31.503Z,-3.876037598
2023-01-21T08:58:31.847Z,-3.825683594
2023-01-21T08:59:32.427Z,-3.785400391
2023-01-21T09:00:32.807Z,-3.765258789
2023-01-21T09:01:33.332Z,-3.795471191
2023-01-21T09:02:33.874Z,-3.795471191
2023-01-21T09:03:34.311Z,-3.785400391
2023-01-21T09:04:35.483Z,-3.755187988
2023-01-21T09:05:35.922Z,-3.724975586
2023-01-21T09:06:36.499Z,-3.704833984
2023-01-21T09:07:37.003Z,-3.684692383
2023-01-21T09:08:37.411Z,-3.64440918
2023-01-21T09:09:38.005Z,-3.694763184
2023-01-21T09:10:38.391Z,-3.704833984
2023-01-21T09:11:38.861Z,-3.704833984
2023-01-21T09:12:39.379Z,-3.724975586
2023-01-21T09:13:39.830Z,-3.704833984
2023-01-21T09:14:41.499Z,-3.583984375
2023-01-21T09:15:41.893Z,-3.432922363
2023-01-21T09:16:42.468Z,-3.372497559
2023-01-21T09:17:42.959Z,-3.372497559
2023-01-21T09:18:43.372Z,-3.362426758
2023-01-21T09:19:43.968Z,-3.342285156
2023-01-21T09:20:44.362Z,-3.362426758
2023-01-21T09:21:44.880Z,-3.342285156
2023-01-21T09:22:45.359Z,-3.362426758
2023-01-21T09:23:46.510Z,-3.402709961
2023-01-21T09:24:47.660Z,-3.432922363
2023-01-21T09:25:48.132Z,-3.473205566
2023-01-21T09:26:48.564Z,-3.442993164
2023-01-21T09:27:49.104Z,-3.463134766
2023-01-21T09:28:49.507Z,-3.473205566
2023-01-21T09:29:50.010Z,-3.412780762
2023-01-21T09:30:50.429Z,-3.442993164
2023-01-21T09:31:50.851Z,-3.442993164
2023-01-21T09:32:52.271Z,-3.463134766
2023-01-21T09:33:52.634Z,-3.432922363
2023-01-21T09:34:53.878Z,-3.402709961
2023-01-21T09:35:54.313Z,-3.372497559
2023-01-21T09:36:54.719Z,-3.362426758
2023-01-21T09:37:55.366Z,-3.26171875
2023-01-21T09:39:26.309Z,-3.251647949
2023-01-21T09:40:26.961Z,-3.231506348
2023-01-21T09:41:27.368Z,-3.231506348
2023-01-21T09:42:27.955Z,-3.251647949
2023-01-21T09:43:28.417Z,-3.251647949
2023-01-21T09:44:29.502Z,-3.281860352
2023-01-21T09:45:30.148Z,-3.281860352
2023-01-21T09:46:30.557Z,-3.302001953
2023-01-21T09:47:31.044Z,-3.312072754
2023-01-21T09:48:31.403Z,-3.302001953
2023-01-21T09:49:31.829Z,-3.26171875
2023-01-21T09:50:32.372Z,-3.251647949
2023-01-21T09:51:32.832Z,-3.26171875
2023-01-21T09:52:33.259Z,-3.221435547
2023-01-21T09:53:33.869Z,-3.191223145
2023-01-21T09:54:35.001Z,-3.150939941
2023-01-21T09:55:35.559Z,-3.13079834
2023-01-21T09:56:36.012Z,-3.100585938
2023-01-21T09:57:36.583Z,-3.050231934
2023-01-21T09:58:37.015Z,-3.040161133
2023-01-21T09:59:37.431Z,-3.040161133
2023-01-21T10:00:37.957Z,-2.99987793
2023-01-21T10:01:38.365Z,-2.99987793
2023-01-21T10:02:39.996Z,-2.939453125
2023-01-21T10:03:40.640Z,-2.899169922
2023-01-21T10:04:41.135Z,-2.86895752
2023-01-21T10:05:41.602Z,-2.86895752
2023-01-21T10:06:42.004Z,-2.86895752
2023-01-21T10:07:42.508Z,-2.899169922
2023-01-21T10:08:43.084Z,-2.929382324
2023-01-21T10:09:43.484Z,-2.899169922
2023-01-21T10:10:43.964Z,-2.899169922
2023-01-21T10:11:46.138Z,-2.929382324
2023-01-21T10:12:44.791Z,-2.899169922
2023-01-21T10:13:45.256Z,-2.899169922
2023-01-21T10:14:45.666Z,-2.86895752
2023-01-21T10:15:46.098Z,-2.838745117
2023-01-21T10:16:46.601Z,-2.828674316
2023-01-21T10:17:46.882Z,-2.798461914
2023-01-21T10:18:47.413Z,-2.768249512
2023-01-21T10:19:47.918Z,-2.758178711
2023-01-21T10:20:48.636Z,-2.687683105
2023-01-21T10:21:49.023Z,-2.657470703
2023-01-21T10:22:49.425Z,-2.647399902
2023-01-21T10:23:49.943Z,-2.647399902
2023-01-21T10:24:50.404Z,-2.6171875
2023-01-21T10:25:51.650Z,-2.6171875
2023-01-21T10:26:52.122Z,-2.607116699
2023-01-21T10:27:52.535Z,-2.576904297
2023-01-21T10:28:53.058Z,-2.556762695
2023-01-21T10:29:53.505Z,-2.546691895
2023-01-21T10:30:54.042Z,-2.526550293
2023-01-21T10:31:54.499Z,-2.496337891
2023-01-21T10:33:25.910Z,-2.496337891
2023-01-21T10:34:26.295Z,-2.506408691
2023-01-21T10:35:27.727Z,-2.466125488
2023-01-21T10:36:28.199Z,-2.456054688
2023-01-21T10:37:28.621Z,-2.435913086
2023-01-21T10:38:29.029Z,-2.405700684
2023-01-21T10:39:29.548Z,-2.375488281
2023-01-21T10:40:29.915Z,-2.315063477
2023-01-21T10:41:30.497Z,-2.284851074
2023-01-21T10:42:31.075Z,-2.254638672
2023-01-21T10:43:31.600Z,-2.22442627
2023-01-21T10:44:32.017Z,-2.184143066
2023-01-21T10:45:33.173Z,-2.133789063